Time;durP1;ratioP1;P1;durP2;ratioP2;P2;SDS_P1;SDS_P2;PMS_P1;PMS_P2;Temp;Humidity;BMP_temperature;BMP_pressure;BME280_temperature;BME280_humidity;BME280_pressure;Samples;Min_cycle;Max_cycle;Signal;HPM_P1;HPM_P2
2021/12/04 00:08:07;;;;;;;;;;;;;;;21.01;49.12;100172.44;20397646;28;97781;-79
2021/12/04 00:18:07;;;;;;;;;;;;;;;20.97;49.14;100163.97;20388750;28;97971;-77
2021/12/04 00:28:07;;;;;;;;;;;;;;;20.94;48.88;100158.94;20381953;28;97921;-78
2021/12/04 00:58:38;;;;;;;;;;;;;;;20.83;48.88;100141.38;20351636;28;97154;-77
2021/12/04 01:08:40;;;;;;;;;;;;;;;20.79;49.12;100134.69;20386526;28;98667;-78
2021/12/04 01:18:41;;;;;;;;;;;;;;;20.79;49.13;100147.84;20391736;28;97486;-78
2021/12/04 01:28:41;;;;;;;;;;;;;;;20.71;48.94;100144.94;20383850;28;97201;-77
2021/12/04 01:38:41;;;;;;;;;;;;;;;20.69;48.79;100152.97;20364703;28;97338;-77
2021/12/04 01:48:42;;;;;;;;;;;;;;;20.66;48.84;100144.47;20396330;28;97519;-77
2021/12/04 01:58:42;;;;;;;;;;;;;;;20.63;49.07;100135.84;20399235;28;100222;-75
2021/12/04 02:08:43;;;;;;;;;;;;;;;20.60;48.56;100124.75;20384785;28;100028;-76
2021/12/04 02:18:44;;;;;;;;;;;;;;;20.59;48.54;100121.28;20397026;28;97717;-77
2021/12/04 02:28:46;;;;;;;;;;;;;;;20.57;48.61;100114.47;20397213;28;97507;-76
2021/12/04 02:38:51;;;;;;;;;;;;;;;20.53;48.54;100108.63;20384517;28;97421;-76
2021/12/04 02:48:51;;;;;;;;;;;;;;;20.53;48.96;100100.72;20388435;28;97043;-76
2021/12/04 02:58:56;;;;;;;;;;;;;;;20.48;48.78;100087.94;20394523;28;96981;-75
2021/12/04 03:08:56;;;;;;;;;;;;;;;20.48;48.67;100092.34;20392811;28;97811;-76
2021/12/04 03:18:57;;;;;;;;;;;;;;;20.44;48.53;100080.41;20394776;28;97057;-76
2021/12/04 03:29:00;;;;;;;;;;;;;;;20.40;48.33;100082.44;20378874;28;100744;-75
2021/12/04 03:49:20;;;;;;;;;;;;;;;20.35;48.61;100042.53;20386477;28;97651;-74
2021/12/04 03:59:22;;;;;;;;;;;;;;;20.30;48.65;100019.22;20354921;28;97412;-74
2021/12/04 04:09:23;;;;;;;;;;;;;;;20.30;48.53;100026.28;20370469;28;97691;-75
2021/12/04 04:19:24;;;;;;;;;;;;;;;20.30;48.46;100007.88;20382057;28;96932;-75
2021/12/04 04:29:25;;;;;;;;;;;;;;;20.30;48.54;100010.50;20362280;28;97125;-75
2021/12/04 05:00:29;;;;;;;;;;;;;;;20.22;48.38;100032.13;20401466;28;97107;-77
2021/12/04 05:20:40;;;;;;;;;;;;;;;20.41;47.09;100033.28;20389956;28;100076;-77
2021/12/04 05:30:40;;;;;;;;;;;;;;;20.58;46.95;100018.78;20385431;28;101487;-77
2021/12/04 05:40:42;;;;;;;;;;;;;;;20.79;47.98;100017.09;20375215;28;98362;-77
2021/12/04 06:00:48;;;;;;;;;;;;;;;21.08;47.57;99999.84;20370838;28;98238;-77
2021/12/04 06:10:49;;;;;;;;;;;;;;;21.21;47.70;100007.56;20344690;28;101074;-79
2021/12/04 06:31:10;;;;;;;;;;;;;;;21.36;46.42;99987.00;20355662;28;98001;-81
2021/12/04 06:41:11;;;;;;;;;;;;;;;21.39;46.89;99986.75;20395250;28;100554;-80
2021/12/04 07:01:12;;;;;;;;;;;;;;;21.35;43.43;99980.91;20390914;28;100223;-80
2021/12/04 07:11:12;;;;;;;;;;;;;;;21.16;44.56;99970.28;20408095;28;100618;-79
2021/12/04 07:21:13;;;;;;;;;;;;;;;21.33;46.71;99964.41;20403669;28;96904;-79
2021/12/04 07:31:13;;;;;;;;;;;;;;;21.42;48.04;99962.78;20403217;28;97070;-79
2021/12/04 07:41:14;;;;;;;;;;;;;;;21.42;47.82;99941.72;20391497;28;97525;-78
2021/12/04 07:51:14;;;;;;;;;;;;;;;21.42;47.62;99932.03;20393709;28;100871;-78
2021/12/04 08:01:15;;;;;;;;;;;;;;;21.35;47.20;99928.25;20404784;28;97352;-78
2021/12/04 08:11:15;;;;;;;;;;;;;;;21.37;47.34;99928.09;20375438;28;98329;-77
2021/12/04 08:21:16;;;;;;;;;;;;;;;21.36;46.84;99923.81;20414684;28;97275;-78
2021/12/04 08:31:17;;;;;;;;;;;;;;;21.57;47.85;99934.34;20431901;28;100833;-79
2021/12/04 08:41:18;;;;;;;;;;;;;;;21.61;47.45;99921.75;20453422;28;97360;-78
2021/12/04 08:51:22;;;;;;;;;;;;;;;21.61;46.81;99909.38;20430368;28;97571;-79
2021/12/04 09:01:24;;;;;;;;;;;;;;;21.67;46.62;99914.13;20381580;28;98956;-79
2021/12/04 09:11:27;;;;;;;;;;;;;;;21.58;46.27;99902.59;20420406;28;98608;-79
2021/12/04 09:21:28;;;;;;;;;;;;;;;21.66;45.71;99888.75;20408152;28;96890;-78
2021/12/04 10:02:36;;;;;;;;;;;;;;;21.64;45.85;99843.28;20409724;28;97440;-79
2021/12/04 10:23:02;;;;;;;;;;;;;;;21.68;45.40;99797.22;20391252;28;97840;-79
2021/12/04 10:33:07;;;;;;;;;;;;;;;21.70;45.55;99778.63;20374474;28;98972;-78
2021/12/04 10:43:12;;;;;;;;;;;;;;;21.72;45.45;99763.53;20400190;28;98592;-78
2021/12/04 10:53:17;;;;;;;;;;;;;;;21.74;45.28;99745.78;20399065;28;98572;-79
2021/12/04 11:03:37;;;;;;;;;;;;;;;21.73;45.16;99713.31;20391597;28;98622;-76
2021/12/04 11:35:07;;;;;;;;;;;;;;;21.95;43.56;99678.91;20396779;28;97031;-76
2021/12/04 11:44:34;;;;;;;;;;;;;;;22.15;44.54;99666.53;20378956;28;97739;-76
2021/12/04 11:54:49;;;;;;;;;;;;;;;22.28;44.68;99639.84;20329131;28;97231;-76
2021/12/04 12:04:52;;;;;;;;;;;;;;;22.39;45.24;99618.59;20287790;28;97201;-75
2021/12/04 12:14:57;;;;;;;;;;;;;;;22.49;45.14;99602.72;20316546;28;97636;-75
2021/12/04 12:25:14;;;;;;;;;;;;;;;22.51;44.79;99616.59;20319237;28;101276;-74
2021/12/04 12:45:56;;;;;;;;;;;;;;;22.27;44.92;99604.72;20327678;28;97204;-76
2021/12/04 12:56:05;;;;;;;;;;;;;;;22.37;44.73;99586.22;20400363;28;96949;-76
2021/12/04 13:16:30;;;;;;;;;;;;;;;22.42;44.55;99581.34;20397451;28;96950;-76
2021/12/04 13:26:33;;;;;;;;;;;;;;;22.31;44.58;99578.88;20368994;28;100372;-76
2021/12/04 13:36:35;;;;;;;;;;;;;;;22.10;43.05;99579.13;20389475;28;97152;-76
2021/12/04 13:46:46;;;;;;;;;;;;;;;22.12;43.80;99558.69;20399893;28;97716;-80
2021/12/04 13:56:47;;;;;;;;;;;;;;;21.95;43.87;99555.84;20426995;28;96895;-78
2021/12/04 14:06:58;;;;;;;;;;;;;;;21.87;43.85;99521.47;20407188;28;97078;-78
2021/12/04 14:17:05;;;;;;;;;;;;;;;21.86;43.32;99511.91;20385662;28;96952;-77
2021/12/04 14:27:05;;;;;;;;;;;;;;;21.81;43.64;99482.53;20383369;28;97571;-78
2021/12/04 14:37:09;;;;;;;;;;;;;;;21.79;43.57;99480.03;20388725;28;97616;-78
2021/12/04 14:47:10;;;;;;;;;;;;;;;21.70;43.47;99489.66;20385914;28;97027;-78
2021/12/04 14:57:18;;;;;;;;;;;;;;;21.65;43.17;99480.50;20387634;28;97188;-77
2021/12/04 15:07:21;;;;;;;;;;;;;;;21.59;43.64;99492.44;20374284;28;96954;-77
2021/12/04 15:17:21;;;;;;;;;;;;;;;21.58;43.28;99498.69;20398831;28;97679;-77
2021/12/04 15:27:24;;;;;;;;;;;;;;;21.52;43.25;99521.13;20397776;28;98117;-78
2021/12/04 15:37:29;;;;;;;;;;;;;;;21.48;43.32;99529.47;20378412;28;97819;-76
2021/12/04 15:47:47;;;;;;;;;;;;;;;21.44;43.38;99519.19;20368997;28;96819;-77
2021/12/04 15:57:55;;;;;;;;;;;;;;;21.30;43.40;99534.59;20364858;28;97532;-77
2021/12/04 16:08:13;;;;;;;;;;;;;;;21.46;44.02;99515.59;20368331;28;98071;-78
2021/12/04 16:18:14;;;;;;;;;;;;;;;21.56;44.32;99511.16;20384295;28;97702;-77
2021/12/04 16:38:21;;;;;;;;;;;;;;;21.55;45.66;99501.59;20398992;28;97009;-77
2021/12/04 16:48:24;;;;;;;;;;;;;;;21.52;45.66;99486.03;20398397;28;97180;-77
2021/12/04 16:58:24;;;;;;;;;;;;;;;21.49;45.51;99484.53;20395738;28;97906;-78
2021/12/04 17:08:25;;;;;;;;;;;;;;;21.44;45.76;99479.69;20425527;28;98731;-79
2021/12/04 17:18:29;;;;;;;;;;;;;;;21.39;45.97;99465.31;20425462;28;96820;-79
2021/12/04 17:28:35;;;;;;;;;;;;;;;21.38;46.32;99487.34;20410524;28;97320;-80
2021/12/04 17:38:43;;;;;;;;;;;;;;;21.42;46.64;99478.16;20419656;28;96916;-81
2021/12/04 17:48:45;;;;;;;;;;;;;;;21.44;47.06;99466.53;20411215;28;98039;-80
2021/12/04 17:58:46;;;;;;;;;;;;;;;21.43;47.73;99474.56;20380799;28;97568;-78
2021/12/04 18:08:49;;;;;;;;;;;;;;;21.55;48.64;99473.41;20373488;28;97192;-78
2021/12/04 18:18:49;;;;;;;;;;;;;;;21.64;47.52;99460.41;20386651;28;97022;-79
2021/12/04 18:28:51;;;;;;;;;;;;;;;21.70;48.10;99436.09;20391224;28;97026;-80
2021/12/04 18:38:51;;;;;;;;;;;;;;;21.70;48.18;99423.78;20401565;28;96981;-78
2021/12/04 18:48:52;;;;;;;;;;;;;;;21.72;48.02;99421.81;20390889;28;97687;-79
2021/12/04 18:58:52;;;;;;;;;;;;;;;21.70;47.88;99422.94;20394400;28;97011;-79
2021/12/04 19:08:54;;;;;;;;;;;;;;;21.68;47.73;99420.44;20385604;28;97302;-78
2021/12/04 19:18:54;;;;;;;;;;;;;;;21.67;47.99;99412.69;20374226;28;97698;-79
2021/12/04 19:28:56;;;;;;;;;;;;;;;21.69;48.18;99406.31;20391454;28;96981;-77
2021/12/04 19:59:19;;;;;;;;;;;;;;;21.67;47.84;99421.41;20377630;28;97155;-78
2021/12/04 20:19:30;;;;;;;;;;;;;;;21.58;48.32;99420.50;20375094;28;100662;-77
2021/12/04 21:52:03;;;;;;;;;;;;;;;21.22;49.54;99361.56;20381281;28;97533;-78
2021/12/04 22:12:34;;;;;;;;;;;;;;;21.18;49.79;99339.09;20388665;28;97048;-78
2021/12/04 23:13:47;;;;;;;;;;;;;;;20.97;49.17;99313.00;20364975;28;97506;-78
2021/12/04 23:34:26;;;;;;;;;;;;;;;20.91;49.81;99291.56;20379014;28;99429;-78
